sensor_id;sensor_type;location;lat;lon;timestamp;noise_LAeq;noise_LA_min;noise_LA_max;noise_LA01;noise_LA95
64036;Laerm;50280;49.864;8.638;2023-02-28T00:00:56;32.71;29.29;45.36;;
64036;Laerm;50280;49.864;8.638;2023-02-28T00:03:28;33.59;30.39;39.18;;
64036;Laerm;50280;49.864;8.638;2023-02-28T00:06:03;33.03;30.25;38.24;;
64036;Laerm;50280;49.864;8.638;2023-02-28T00:08:36;32.54;29.51;43.46;;
64036;Laerm;50280;49.864;8.638;2023-02-28T00:13:44;32.50;29.69;45.63;;
64036;Laerm;50280;49.864;8.638;2023-02-28T00:16:20;33.77;29.82;42.37;;
64036;Laerm;50280;49.864;8.638;2023-02-28T00:18:53;31.59;29.30;34.18;;
64036;Laerm;50280;49.864;8.638;2023-02-28T00:21:26;32.41;29.41;40.18;;
64036;Laerm;50280;49.864;8.638;2023-02-28T00:24:01;33.74;30.73;37.69;;
64036;Laerm;50280;49.864;8.638;2023-02-28T00:26:34;34.12;29.68;46.42;;
64036;Laerm;50280;49.864;8.638;2023-02-28T00:29:06;31.51;29.31;37.32;;
64036;Laerm;50280;49.864;8.638;2023-02-28T00:31:38;31.00;29.35;33.16;;
64036;Laerm;50280;49.864;8.638;2023-02-28T00:34:10;31.15;29.04;44.24;;
64036;Laerm;50280;49.864;8.638;2023-02-28T00:36:43;32.99;29.53;47.58;;
64036;Laerm;50280;49.864;8.638;2023-02-28T00:39:15;32.52;28.97;43.08;;
64036;Laerm;50280;49.864;8.638;2023-02-28T00:41:48;32.05;29.48;44.35;;
64036;Laerm;50280;49.864;8.638;2023-02-28T00:44:20;34.56;31.11;44.61;;
64036;Laerm;50280;49.864;8.638;2023-02-28T00:46:52;34.03;29.87;44.13;;
64036;Laerm;50280;49.864;8.638;2023-02-28T00:49:25;31.97;29.31;42.56;;
64036;Laerm;50280;49.864;8.638;2023-02-28T00:51:59;31.48;29.13;39.20;;
64036;Laerm;50280;49.864;8.638;2023-02-28T00:54:31;32.54;29.33;46.25;;
64036;Laerm;50280;49.864;8.638;2023-02-28T00:57:03;30.77;29.03;32.96;;
64036;Laerm;50280;49.864;8.638;2023-02-28T00:59:35;31.62;28.86;38.32;;
64036;Laerm;50280;49.864;8.638;2023-02-28T01:02:07;39.96;29.48;58.23;;
64036;Laerm;50280;49.864;8.638;2023-02-28T01:04:39;42.70;30.35;59.53;;
64036;Laerm;50280;49.864;8.638;2023-02-28T01:07:13;33.26;30.47;37.29;;
64036;Laerm;50280;49.864;8.638;2023-02-28T01:09:45;33.31;29.29;45.27;;
64036;Laerm;50280;49.864;8.638;2023-02-28T01:12:17;31.28;29.48;33.31;;
64036;Laerm;50280;49.864;8.638;2023-02-28T01:14:49;31.32;29.60;45.40;;
64036;Laerm;50280;49.864;8.638;2023-02-28T01:17:21;31.69;29.54;44.20;;
64036;Laerm;50280;49.864;8.638;2023-02-28T01:19:54;32.56;29.61;44.67;;
64036;Laerm;50280;49.864;8.638;2023-02-28T01:22:28;32.08;29.41;37.43;;
64036;Laerm;50280;49.864;8.638;2023-02-28T01:25:00;31.84;29.94;36.66;;
64036;Laerm;50280;49.864;8.638;2023-02-28T01:27:33;33.91;29.83;41.44;;
64036;Laerm;50280;49.864;8.638;2023-02-28T01:30:06;33.19;29.90;37.09;;
64036;Laerm;50280;49.864;8.638;2023-02-28T01:32:39;32.20;29.36;41.52;;
64036;Laerm;50280;49.864;8.638;2023-02-28T01:35:12;31.57;29.47;45.29;;
64036;Laerm;50280;49.864;8.638;2023-02-28T01:37:45;32.51;29.76;42.16;;
64036;Laerm;50280;49.864;8.638;2023-02-28T01:40:17;33.23;29.77;41.16;;
64036;Laerm;50280;49.864;8.638;2023-02-28T01:42:49;32.36;29.98;45.00;;
64036;Laerm;50280;49.864;8.638;2023-02-28T01:45:24;34.13;29.21;46.93;;
64036;Laerm;50280;49.864;8.638;2023-02-28T01:48:02;32.93;29.66;38.37;;
64036;Laerm;50280;49.864;8.638;2023-02-28T01:50:39;33.27;29.83;42.28;;
64036;Laerm;50280;49.864;8.638;2023-02-28T01:53:18;30.80;28.91;32.82;;
64036;Laerm;50280;49.864;8.638;2023-02-28T01:55:55;31.66;29.08;35.55;;
64036;Laerm;50280;49.864;8.638;2023-02-28T01:58:28;33.78;29.72;40.13;;
64036;Laerm;50280;49.864;8.638;2023-02-28T02:01:00;33.25;29.85;41.83;;
64036;Laerm;50280;49.864;8.638;2023-02-28T02:03:33;33.58;29.87;39.08;;
64036;Laerm;50280;49.864;8.638;2023-02-28T02:06:07;35.77;31.35;49.16;;
64036;Laerm;50280;49.864;8.638;2023-02-28T02:08:40;34.81;30.33;45.47;;
64036;Laerm;50280;49.864;8.638;2023-02-28T02:11:13;33.47;30.03;49.04;;
64036;Laerm;50280;49.864;8.638;2023-02-28T02:14:03;33.61;30.48;40.05;;
64036;Laerm;50280;49.864;8.638;2023-02-28T02:17:09;33.71;30.48;38.77;;
64036;Laerm;50280;49.864;8.638;2023-02-28T02:20:18;34.00;30.09;47.60;;
64036;Laerm;50280;49.864;8.638;2023-02-28T02:23:33;31.51;29.47;40.43;;
64036;Laerm;50280;49.864;8.638;2023-02-28T02:26:46;32.05;29.52;38.72;;
64036;Laerm;50280;49.864;8.638;2023-02-28T02:29:48;34.37;30.25;44.75;;
64036;Laerm;50280;49.864;8.638;2023-02-28T02:32:54;33.60;29.77;39.81;;
64036;Laerm;50280;49.864;8.638;2023-02-28T02:35:43;33.78;29.89;41.21;;
64036;Laerm;50280;49.864;8.638;2023-02-28T02:38:32;32.65;29.37;44.77;;
64036;Laerm;50280;49.864;8.638;2023-02-28T02:41:16;34.09;30.26;40.87;;
64036;Laerm;50280;49.864;8.638;2023-02-28T02:43:56;33.71;30.87;38.02;;
64036;Laerm;50280;49.864;8.638;2023-02-28T02:49:13;34.21;30.73;43.53;;
64036;Laerm;50280;49.864;8.638;2023-02-28T02:51:54;33.92;29.92;45.85;;
64036;Laerm;50280;49.864;8.638;2023-02-28T02:54:33;32.88;29.46;43.51;;
64036;Laerm;50280;49.864;8.638;2023-02-28T02:57:11;33.59;29.84;45.35;;
64036;Laerm;50280;49.864;8.638;2023-02-28T02:59:48;35.36;31.78;50.03;;
64036;Laerm;50280;49.864;8.638;2023-02-28T03:02:25;32.94;29.82;38.92;;
64036;Laerm;50280;49.864;8.638;2023-02-28T03:05:03;32.46;30.05;39.06;;
64036;Laerm;50280;49.864;8.638;2023-02-28T03:07:41;33.89;29.89;39.30;;
64036;Laerm;50280;49.864;8.638;2023-02-28T03:10:34;33.35;30.05;45.97;;
64036;Laerm;50280;49.864;8.638;2023-02-28T03:13:21;34.64;30.25;51.10;;
64036;Laerm;50280;49.864;8.638;2023-02-28T03:16:30;34.35;30.14;48.94;;
64036;Laerm;50280;49.864;8.638;2023-02-28T03:19:22;34.05;30.02;43.55;;
64036;Laerm;50280;49.864;8.638;2023-02-28T03:22:18;34.72;30.24;47.29;;
64036;Laerm;50280;49.864;8.638;2023-02-28T03:25:07;33.54;30.07;38.86;;
64036;Laerm;50280;49.864;8.638;2023-02-28T03:27:52;32.32;29.81;41.77;;
64036;Laerm;50280;49.864;8.638;2023-02-28T03:30:38;33.62;30.26;40.92;;
64036;Laerm;50280;49.864;8.638;2023-02-28T03:33:19;34.62;30.30;51.77;;
64036;Laerm;50280;49.864;8.638;2023-02-28T03:35:57;37.14;30.68;49.20;;
64036;Laerm;50280;49.864;8.638;2023-02-28T03:38:38;36.16;30.80;46.27;;
64036;Laerm;50280;49.864;8.638;2023-02-28T03:41:17;35.17;30.78;43.16;;
64036;Laerm;50280;49.864;8.638;2023-02-28T03:43:55;35.93;31.32;43.37;;
64036;Laerm;50280;49.864;8.638;2023-02-28T03:46:33;40.35;32.91;51.34;;
64036;Laerm;50280;49.864;8.638;2023-02-28T03:49:14;33.25;30.16;39.29;;
64036;Laerm;50280;49.864;8.638;2023-02-28T03:51:51;44.39;31.44;54.91;;
64036;Laerm;50280;49.864;8.638;2023-02-28T03:54:29;36.72;31.65;49.57;;
64036;Laerm;50280;49.864;8.638;2023-02-28T03:57:12;33.98;30.65;43.06;;
64036;Laerm;50280;49.864;8.638;2023-02-28T03:59:56;32.49;30.32;38.76;;
64036;Laerm;50280;49.864;8.638;2023-02-28T04:02:32;43.03;30.24;58.47;;
64036;Laerm;50280;49.864;8.638;2023-02-28T04:05:05;34.80;31.26;46.74;;
64036;Laerm;50280;49.864;8.638;2023-02-28T04:07:37;36.98;32.01;45.39;;
64036;Laerm;50280;49.864;8.638;2023-02-28T04:10:11;37.96;32.73;45.44;;
64036;Laerm;50280;49.864;8.638;2023-02-28T04:12:44;35.33;30.93;45.90;;
64036;Laerm;50280;49.864;8.638;2023-02-28T04:15:17;35.78;31.03;54.36;;
64036;Laerm;50280;49.864;8.638;2023-02-28T04:17:49;35.45;30.88;43.87;;
64036;Laerm;50280;49.864;8.638;2023-02-28T04:20:21;34.24;30.70;39.02;;
64036;Laerm;50280;49.864;8.638;2023-02-28T04:22:53;35.18;31.92;45.70;;
64036;Laerm;50280;49.864;8.638;2023-02-28T04:25:25;36.60;31.79;49.62;;
64036;Laerm;50280;49.864;8.638;2023-02-28T04:27:59;36.47;32.63;42.89;;
64036;Laerm;50280;49.864;8.638;2023-02-28T04:30:31;34.96;32.09;41.38;;
64036;Laerm;50280;49.864;8.638;2023-02-28T04:33:03;35.63;32.01;43.69;;
64036;Laerm;50280;49.864;8.638;2023-02-28T04:35:35;35.65;32.22;42.85;;
64036;Laerm;50280;49.864;8.638;2023-02-28T04:38:07;36.67;33.01;44.30;;
64036;Laerm;50280;49.864;8.638;2023-02-28T04:40:42;37.28;33.28;44.96;;
64036;Laerm;50280;49.864;8.638;2023-02-28T04:43:15;38.27;33.38;44.94;;
64036;Laerm;50280;49.864;8.638;2023-02-28T04:45:47;38.35;34.52;44.39;;
64036;Laerm;50280;49.864;8.638;2023-02-28T04:48:19;38.50;33.60;48.81;;
64036;Laerm;50280;49.864;8.638;2023-02-28T04:50:51;36.72;33.05;54.58;;
64036;Laerm;50280;49.864;8.638;2023-02-28T04:53:23;38.55;33.65;48.81;;
64036;Laerm;50280;49.864;8.638;2023-02-28T04:55:56;40.54;34.26;49.21;;
64036;Laerm;50280;49.864;8.638;2023-02-28T04:58:30;37.38;33.01;46.48;;
64036;Laerm;50280;49.864;8.638;2023-02-28T05:01:04;38.93;33.51;52.91;;
64036;Laerm;50280;49.864;8.638;2023-02-28T05:03:37;37.64;33.97;60.42;;
64036;Laerm;50280;49.864;8.638;2023-02-28T05:06:09;37.93;34.83;45.69;;
64036;Laerm;50280;49.864;8.638;2023-02-28T05:08:45;37.65;34.24;45.66;;
64036;Laerm;50280;49.864;8.638;2023-02-28T05:11:21;45.22;35.97;57.57;;
64036;Laerm;50280;49.864;8.638;2023-02-28T05:13:57;38.94;34.50;47.85;;
64036;Laerm;50280;49.864;8.638;2023-02-28T05:16:29;38.54;33.77;54.90;;
64036;Laerm;50280;49.864;8.638;2023-02-28T05:19:02;38.29;34.00;47.11;;
64036;Laerm;50280;49.864;8.638;2023-02-28T05:21:36;40.49;33.32;65.75;;
64036;Laerm;50280;49.864;8.638;2023-02-28T05:24:11;39.82;34.80;63.12;;
64036;Laerm;50280;49.864;8.638;2023-02-28T05:26:43;41.99;35.00;62.39;;
64036;Laerm;50280;49.864;8.638;2023-02-28T05:29:17;39.07;34.89;48.34;;
64036;Laerm;50280;49.864;8.638;2023-02-28T05:31:49;39.51;34.62;53.72;;
64036;Laerm;50280;49.864;8.638;2023-02-28T05:34:21;40.13;35.16;58.42;;
64036;Laerm;50280;49.864;8.638;2023-02-28T05:36:53;42.78;35.24;58.99;;
64036;Laerm;50280;49.864;8.638;2023-02-28T05:39:25;42.65;35.03;56.79;;
64036;Laerm;50280;49.864;8.638;2023-02-28T05:41:57;45.37;34.86;57.46;;
64036;Laerm;50280;49.864;8.638;2023-02-28T05:44:31;40.43;35.75;52.14;;
64036;Laerm;50280;49.864;8.638;2023-02-28T05:47:03;45.05;36.15;56.58;;
64036;Laerm;50280;49.864;8.638;2023-02-28T05:49:35;41.33;36.06;64.31;;
64036;Laerm;50280;49.864;8.638;2023-02-28T05:52:07;41.27;35.40;57.36;;
64036;Laerm;50280;49.864;8.638;2023-02-28T05:54:40;44.24;35.65;60.26;;
64036;Laerm;50280;49.864;8.638;2023-02-28T05:57:12;45.88;36.15;60.87;;
64036;Laerm;50280;49.864;8.638;2023-02-28T05:59:45;52.85;36.96;69.56;;
64036;Laerm;50280;49.864;8.638;2023-02-28T06:02:17;50.11;35.72;68.74;;
64036;Laerm;50280;49.864;8.638;2023-02-28T06:04:50;60.07;36.77;84.31;;
64036;Laerm;50280;49.864;8.638;2023-02-28T06:07:22;51.26;38.50;63.46;;
64036;Laerm;50280;49.864;8.638;2023-02-28T06:09:54;47.95;36.91;62.58;;
64036;Laerm;50280;49.864;8.638;2023-02-28T06:12:26;48.94;36.96;61.84;;
64036;Laerm;50280;49.864;8.638;2023-02-28T06:14:59;53.82;38.47;66.47;;
64036;Laerm;50280;49.864;8.638;2023-02-28T06:17:31;51.88;38.10;64.07;;
64036;Laerm;50280;49.864;8.638;2023-02-28T06:20:05;51.45;39.37;63.41;;
64036;Laerm;50280;49.864;8.638;2023-02-28T06:22:38;48.87;38.66;65.16;;
64036;Laerm;50280;49.864;8.638;2023-02-28T06:25:11;49.04;38.48;63.27;;
64036;Laerm;50280;49.864;8.638;2023-02-28T06:27:43;48.46;40.51;72.32;;
64036;Laerm;50280;49.864;8.638;2023-02-28T06:30:17;47.80;40.56;60.91;;
64036;Laerm;50280;49.864;8.638;2023-02-28T06:32:49;47.51;39.67;61.48;;
64036;Laerm;50280;49.864;8.638;2023-02-28T06:35:21;50.19;38.75;65.24;;
64036;Laerm;50280;49.864;8.638;2023-02-28T06:37:54;50.22;38.56;62.19;;
64036;Laerm;50280;49.864;8.638;2023-02-28T06:40:26;50.10;37.64;63.02;;
64036;Laerm;50280;49.864;8.638;2023-02-28T06:42:58;48.59;37.86;60.21;;
64036;Laerm;50280;49.864;8.638;2023-02-28T06:45:31;45.98;38.25;61.30;;
64036;Laerm;50280;49.864;8.638;2023-02-28T06:48:04;46.47;37.31;60.34;;
64036;Laerm;50280;49.864;8.638;2023-02-28T06:50:36;46.37;36.92;58.72;;
64036;Laerm;50280;49.864;8.638;2023-02-28T06:53:08;50.79;38.80;63.15;;
64036;Laerm;50280;49.864;8.638;2023-02-28T06:55:41;45.82;38.40;57.06;;
64036;Laerm;50280;49.864;8.638;2023-02-28T06:58:13;46.50;38.04;61.22;;
64036;Laerm;50280;49.864;8.638;2023-02-28T07:00:50;50.43;37.25;65.60;;
64036;Laerm;50280;49.864;8.638;2023-02-28T07:03:24;47.27;38.62;66.01;;
64036;Laerm;50280;49.864;8.638;2023-02-28T07:05:56;45.76;36.85;60.85;;
64036;Laerm;50280;49.864;8.638;2023-02-28T07:08:28;49.00;37.95;69.48;;
64036;Laerm;50280;49.864;8.638;2023-02-28T07:11:00;48.80;38.83;60.97;;
64036;Laerm;50280;49.864;8.638;2023-02-28T07:13:32;51.36;37.68;73.92;;
64036;Laerm;50280;49.864;8.638;2023-02-28T07:16:08;47.39;38.59;63.75;;
64036;Laerm;50280;49.864;8.638;2023-02-28T07:18:42;45.46;38.97;56.62;;
64036;Laerm;50280;49.864;8.638;2023-02-28T07:21:14;49.50;38.52;64.99;;
64036;Laerm;50280;49.864;8.638;2023-02-28T07:23:47;44.41;38.19;56.80;;
64036;Laerm;50280;49.864;8.638;2023-02-28T07:26:20;45.03;36.53;62.73;;
64036;Laerm;50280;49.864;8.638;2023-02-28T07:28:52;45.23;37.42;57.54;;
64036;Laerm;50280;49.864;8.638;2023-02-28T07:31:25;45.90;37.66;65.43;;
64036;Laerm;50280;49.864;8.638;2023-02-28T07:33:58;47.43;38.46;60.73;;
64036;Laerm;50280;49.864;8.638;2023-02-28T07:36:30;44.90;37.80;59.79;;
64036;Laerm;50280;49.864;8.638;2023-02-28T07:39:02;46.21;37.05;60.63;;
64036;Laerm;50280;49.864;8.638;2023-02-28T07:41:34;46.30;38.57;59.29;;
64036;Laerm;50280;49.864;8.638;2023-02-28T07:44:06;49.16;39.72;60.33;;
64036;Laerm;50280;49.864;8.638;2023-02-28T07:46:39;50.98;37.68;62.46;;
64036;Laerm;50280;49.864;8.638;2023-02-28T07:49:12;45.87;38.07;60.51;;
64036;Laerm;50280;49.864;8.638;2023-02-28T07:51:44;50.93;37.97;72.44;;
64036;Laerm;50280;49.864;8.638;2023-02-28T07:54:16;48.80;37.24;64.77;;
64036;Laerm;50280;49.864;8.638;2023-02-28T07:56:48;55.86;37.40;74.49;;
64036;Laerm;50280;49.864;8.638;2023-02-28T07:59:20;48.99;37.08;68.29;;
64036;Laerm;50280;49.864;8.638;2023-02-28T08:01:53;48.25;36.67;58.50;;
64036;Laerm;50280;49.864;8.638;2023-02-28T08:04:26;53.63;37.10;79.79;;
64036;Laerm;50280;49.864;8.638;2023-02-28T08:06:58;48.35;36.92;62.29;;
64036;Laerm;50280;49.864;8.638;2023-02-28T08:09:30;52.01;37.98;65.15;;
64036;Laerm;50280;49.864;8.638;2023-02-28T08:12:02;43.94;36.72;58.88;;
64036;Laerm;50280;49.864;8.638;2023-02-28T08:14:35;46.92;38.00;62.52;;
64036;Laerm;50280;49.864;8.638;2023-02-28T08:17:09;48.92;37.37;71.41;;
64036;Laerm;50280;49.864;8.638;2023-02-28T08:19:42;46.31;37.71;62.38;;
64036;Laerm;50280;49.864;8.638;2023-02-28T08:22:16;46.66;38.73;58.01;;
64036;Laerm;50280;49.864;8.638;2023-02-28T08:24:49;44.65;36.97;56.58;;
64036;Laerm;50280;49.864;8.638;2023-02-28T08:27:21;44.83;36.57;63.90;;
64036;Laerm;50280;49.864;8.638;2023-02-28T08:29:53;48.60;37.22;76.87;;
64036;Laerm;50280;49.864;8.638;2023-02-28T08:32:26;46.57;38.10;61.88;;
64036;Laerm;50280;49.864;8.638;2023-02-28T08:34:58;46.51;36.89;63.61;;
64036;Laerm;50280;49.864;8.638;2023-02-28T08:37:31;48.60;39.10;69.99;;
64036;Laerm;50280;49.864;8.638;2023-02-28T08:40:04;49.67;40.07;63.48;;
64036;Laerm;50280;49.864;8.638;2023-02-28T08:42:36;54.19;40.01;66.37;;
64036;Laerm;50280;49.864;8.638;2023-02-28T08:45:09;46.97;39.18;63.32;;
64036;Laerm;50280;49.864;8.638;2023-02-28T08:47:43;46.66;39.19;66.57;;
64036;Laerm;50280;49.864;8.638;2023-02-28T08:50:15;49.33;39.64;73.26;;
64036;Laerm;50280;49.864;8.638;2023-02-28T08:52:47;48.94;38.06;70.81;;
64036;Laerm;50280;49.864;8.638;2023-02-28T08:55:20;48.21;39.72;62.48;;
64036;Laerm;50280;49.864;8.638;2023-02-28T08:57:52;49.00;39.15;67.36;;
64036;Laerm;50280;49.864;8.638;2023-02-28T09:00:24;46.37;38.17;62.33;;
64036;Laerm;50280;49.864;8.638;2023-02-28T09:02:58;49.22;40.00;73.74;;
64036;Laerm;50280;49.864;8.638;2023-02-28T09:05:30;46.37;38.14;62.58;;
64036;Laerm;50280;49.864;8.638;2023-02-28T09:08:02;46.95;38.16;68.19;;
64036;Laerm;50280;49.864;8.638;2023-02-28T09:10:35;47.05;39.51;60.47;;
64036;Laerm;50280;49.864;8.638;2023-02-28T09:13:07;48.68;37.55;60.28;;
64036;Laerm;50280;49.864;8.638;2023-02-28T09:15:39;44.73;38.60;60.80;;
64036;Laerm;50280;49.864;8.638;2023-02-28T09:18:13;43.09;36.90;58.26;;
64036;Laerm;50280;49.864;8.638;2023-02-28T09:20:46;45.13;37.39;64.15;;
64036;Laerm;50280;49.864;8.638;2023-02-28T09:23:18;53.78;36.30;66.55;;
64036;Laerm;50280;49.864;8.638;2023-02-28T09:25:52;46.66;38.20;60.61;;
64036;Laerm;50280;49.864;8.638;2023-02-28T09:28:25;46.64;37.67;68.44;;
64036;Laerm;50280;49.864;8.638;2023-02-28T09:30:58;46.86;39.16;62.67;;
64036;Laerm;50280;49.864;8.638;2023-02-28T09:33:32;45.53;38.90;61.06;;
64036;Laerm;50280;49.864;8.638;2023-02-28T09:36:04;44.76;37.44;62.87;;
64036;Laerm;50280;49.864;8.638;2023-02-28T09:38:37;44.02;36.59;60.09;;
64036;Laerm;50280;49.864;8.638;2023-02-28T09:41:14;45.90;36.76;60.91;;
64036;Laerm;50280;49.864;8.638;2023-02-28T09:43:52;45.98;36.88;58.68;;
64036;Laerm;50280;49.864;8.638;2023-02-28T09:46:31;45.55;37.75;61.65;;
64036;Laerm;50280;49.864;8.638;2023-02-28T09:49:11;50.98;37.99;69.71;;
64036;Laerm;50280;49.864;8.638;2023-02-28T09:51:50;47.23;38.17;64.29;;
64036;Laerm;50280;49.864;8.638;2023-02-28T09:54:30;49.12;38.97;72.41;;
64036;Laerm;50280;49.864;8.638;2023-02-28T09:57:07;51.01;39.03;74.91;;
64036;Laerm;50280;49.864;8.638;2023-02-28T09:59:57;47.44;39.85;58.95;;
64036;Laerm;50280;49.864;8.638;2023-02-28T10:02:49;48.79;39.36;72.10;;
64036;Laerm;50280;49.864;8.638;2023-02-28T10:05:37;47.07;39.02;63.14;;
64036;Laerm;50280;49.864;8.638;2023-02-28T10:08:14;46.18;37.88;64.16;;
64036;Laerm;50280;49.864;8.638;2023-02-28T10:10:51;42.92;37.56;55.41;;
64036;Laerm;50280;49.864;8.638;2023-02-28T10:13:33;47.25;39.00;62.71;;
64036;Laerm;50280;49.864;8.638;2023-02-28T10:16:13;51.55;40.02;69.34;;
64036;Laerm;50280;49.864;8.638;2023-02-28T10:18:51;46.81;38.69;63.54;;
64036;Laerm;50280;49.864;8.638;2023-02-28T10:21:31;45.46;38.44;63.64;;
64036;Laerm;50280;49.864;8.638;2023-02-28T10:24:16;43.86;38.28;53.90;;
64036;Laerm;50280;49.864;8.638;2023-02-28T10:27:00;49.34;38.24;59.36;;
64036;Laerm;50280;49.864;8.638;2023-02-28T10:29:40;47.90;38.06;58.21;;
64036;Laerm;50280;49.864;8.638;2023-02-28T10:32:18;46.25;37.70;61.53;;
64036;Laerm;50280;49.864;8.638;2023-02-28T10:34:52;44.99;36.74;60.00;;
64036;Laerm;50280;49.864;8.638;2023-02-28T10:37:30;46.22;36.75;59.95;;
64036;Laerm;50280;49.864;8.638;2023-02-28T10:40:02;49.69;39.12;62.93;;
64036;Laerm;50280;49.864;8.638;2023-02-28T10:42:35;47.59;38.67;60.26;;
64036;Laerm;50280;49.864;8.638;2023-02-28T10:45:12;49.26;39.20;59.42;;
64036;Laerm;50280;49.864;8.638;2023-02-28T10:47:51;46.74;38.37;67.20;;
64036;Laerm;50280;49.864;8.638;2023-02-28T10:50:39;48.27;38.56;67.37;;
64036;Laerm;50280;49.864;8.638;2023-02-28T10:53:31;55.77;39.37;80.32;;
64036;Laerm;50280;49.864;8.638;2023-02-28T10:56:15;46.63;37.98;60.32;;
64036;Laerm;50280;49.864;8.638;2023-02-28T10:58:56;50.74;40.25;65.98;;
64036;Laerm;50280;49.864;8.638;2023-02-28T11:01:38;44.69;38.08;61.00;;
64036;Laerm;50280;49.864;8.638;2023-02-28T11:04:18;45.80;38.70;65.02;;
64036;Laerm;50280;49.864;8.638;2023-02-28T11:07:04;45.97;38.14;58.72;;
64036;Laerm;50280;49.864;8.638;2023-02-28T11:09:40;47.81;39.88;60.85;;
64036;Laerm;50280;49.864;8.638;2023-02-28T11:12:20;46.98;38.28;56.65;;
64036;Laerm;50280;49.864;8.638;2023-02-28T11:14:58;47.13;38.43;66.15;;
64036;Laerm;50280;49.864;8.638;2023-02-28T11:17:33;58.20;37.64;81.87;;
64036;Laerm;50280;49.864;8.638;2023-02-28T11:20:07;54.72;40.45;77.68;;
64036;Laerm;50280;49.864;8.638;2023-02-28T11:22:53;54.60;39.68;80.82;;
64036;Laerm;50280;49.864;8.638;2023-02-28T11:25:32;48.97;39.02;67.31;;
64036;Laerm;50280;49.864;8.638;2023-02-28T11:28:25;46.64;37.54;62.93;;
64036;Laerm;50280;49.864;8.638;2023-02-28T11:31:06;50.47;37.36;74.85;;
64036;Laerm;50280;49.864;8.638;2023-02-28T11:33:47;48.47;35.94;71.75;;
64036;Laerm;50280;49.864;8.638;2023-02-28T11:36:24;46.04;37.40;61.72;;
64036;Laerm;50280;49.864;8.638;2023-02-28T11:38:59;44.22;37.77;58.06;;
64036;Laerm;50280;49.864;8.638;2023-02-28T11:41:59;45.49;37.99;57.02;;
64036;Laerm;50280;49.864;8.638;2023-02-28T11:45:02;43.78;36.71;56.13;;
64036;Laerm;50280;49.864;8.638;2023-02-28T11:47:48;45.42;38.16;56.54;;
64036;Laerm;50280;49.864;8.638;2023-02-28T11:50:45;44.29;36.60;60.45;;
64036;Laerm;50280;49.864;8.638;2023-02-28T11:53:49;43.82;38.41;56.93;;
64036;Laerm;50280;49.864;8.638;2023-02-28T11:56:32;46.84;38.40;59.07;;
64036;Laerm;50280;49.864;8.638;2023-02-28T11:59:27;50.22;35.96;77.70;;
64036;Laerm;50280;49.864;8.638;2023-02-28T12:02:24;46.13;37.34;61.98;;
64036;Laerm;50280;49.864;8.638;2023-02-28T12:05:11;47.21;38.48;63.53;;
64036;Laerm;50280;49.864;8.638;2023-02-28T12:08:04;44.02;36.41;59.91;;
64036;Laerm;50280;49.864;8.638;2023-02-28T12:10:59;46.77;35.85;57.10;;
64036;Laerm;50280;49.864;8.638;2023-02-28T12:13:46;48.38;39.19;73.66;;
64036;Laerm;50280;49.864;8.638;2023-02-28T12:16:40;48.36;40.43;70.39;;
64036;Laerm;50280;49.864;8.638;2023-02-28T12:19:29;45.19;36.66;61.75;;
64036;Laerm;50280;49.864;8.638;2023-02-28T12:22:28;45.82;37.58;64.26;;
64036;Laerm;50280;49.864;8.638;2023-02-28T12:25:27;46.92;38.27;62.76;;
64036;Laerm;50280;49.864;8.638;2023-02-28T12:28:14;49.61;39.03;62.42;;
64036;Laerm;50280;49.864;8.638;2023-02-28T12:30:55;50.12;40.14;61.49;;
64036;Laerm;50280;49.864;8.638;2023-02-28T12:33:38;49.12;39.56;58.54;;
64036;Laerm;50280;49.864;8.638;2023-02-28T12:36:17;49.48;38.88;70.83;;
64036;Laerm;50280;49.864;8.638;2023-02-28T12:38:53;51.48;37.51;71.35;;
64036;Laerm;50280;49.864;8.638;2023-02-28T12:41:36;54.60;39.47;63.94;;
64036;Laerm;50280;49.864;8.638;2023-02-28T12:44:17;52.09;40.83;60.79;;
64036;Laerm;50280;49.864;8.638;2023-02-28T12:46:56;47.32;36.47;61.86;;
64036;Laerm;50280;49.864;8.638;2023-02-28T12:49:38;49.55;37.48;60.89;;
64036;Laerm;50280;49.864;8.638;2023-02-28T12:52:22;43.63;35.62;60.22;;
64036;Laerm;50280;49.864;8.638;2023-02-28T12:55:07;45.55;36.95;70.21;;
64036;Laerm;50280;49.864;8.638;2023-02-28T12:57:51;45.78;36.73;57.17;;
64036;Laerm;50280;49.864;8.638;2023-02-28T13:00:35;44.34;36.30;58.74;;
64036;Laerm;50280;49.864;8.638;2023-02-28T13:03:32;50.12;38.61;73.26;;
64036;Laerm;50280;49.864;8.638;2023-02-28T13:06:45;43.80;36.49;61.13;;
64036;Laerm;50280;49.864;8.638;2023-02-28T13:09:32;42.78;36.92;59.05;;
64036;Laerm;50280;49.864;8.638;2023-02-28T13:12:12;42.60;35.36;53.39;;
64036;Laerm;50280;49.864;8.638;2023-02-28T13:14:46;43.02;37.13;54.78;;
64036;Laerm;50280;49.864;8.638;2023-02-28T13:17:20;42.58;36.36;65.63;;
64036;Laerm;50280;49.864;8.638;2023-02-28T13:19:57;44.14;36.10;58.84;;
64036;Laerm;50280;49.864;8.638;2023-02-28T13:22:40;46.91;35.38;64.42;;
64036;Laerm;50280;49.864;8.638;2023-02-28T13:32:31;51.03;36.52;74.66;;
64036;Laerm;50280;49.864;8.638;2023-02-28T13:38:24;47.72;38.05;64.41;;
64036;Laerm;50280;49.864;8.638;2023-02-28T13:41:42;45.81;37.01;69.55;;
64036;Laerm;50280;49.864;8.638;2023-02-28T13:44:20;42.18;36.78;52.20;;
64036;Laerm;50280;49.864;8.638;2023-02-28T13:47:19;41.55;36.33;53.36;;
64036;Laerm;50280;49.864;8.638;2023-02-28T13:50:23;45.31;36.13;59.95;;
64036;Laerm;50280;49.864;8.638;2023-02-28T13:56:39;47.09;36.71;59.35;;
64036;Laerm;50280;49.864;8.638;2023-02-28T13:59:26;42.55;35.53;55.26;;
64036;Laerm;50280;49.864;8.638;2023-02-28T14:02:36;44.74;36.77;59.43;;
64036;Laerm;50280;49.864;8.638;2023-02-28T14:05:19;41.46;36.17;54.96;;
64036;Laerm;50280;49.864;8.638;2023-02-28T14:07:56;46.04;39.02;61.93;;
64036;Laerm;50280;49.864;8.638;2023-02-28T14:10:33;43.69;37.13;60.62;;
64036;Laerm;50280;49.864;8.638;2023-02-28T14:13:14;42.88;36.94;60.97;;
64036;Laerm;50280;49.864;8.638;2023-02-28T14:16:11;43.81;35.76;58.82;;
64036;Laerm;50280;49.864;8.638;2023-02-28T14:18:49;44.72;38.05;57.14;;
64036;Laerm;50280;49.864;8.638;2023-02-28T14:21:29;45.83;36.44;58.89;;
64036;Laerm;50280;49.864;8.638;2023-02-28T14:27:36;46.80;39.47;59.16;;
64036;Laerm;50280;49.864;8.638;2023-02-28T14:30:29;44.90;35.45;65.23;;
64036;Laerm;50280;49.864;8.638;2023-02-28T14:33:23;47.47;37.10;63.86;;
64036;Laerm;50280;49.864;8.638;2023-02-28T14:36:14;47.27;36.98;64.30;;
64036;Laerm;50280;49.864;8.638;2023-02-28T14:38:53;47.77;36.49;63.78;;
64036;Laerm;50280;49.864;8.638;2023-02-28T14:41:31;45.90;37.13;60.13;;
64036;Laerm;50280;49.864;8.638;2023-02-28T14:44:15;46.06;36.05;62.21;;
64036;Laerm;50280;49.864;8.638;2023-02-28T14:46:51;51.78;36.85;61.32;;
64036;Laerm;50280;49.864;8.638;2023-02-28T14:49:27;53.51;40.39;65.70;;
64036;Laerm;50280;49.864;8.638;2023-02-28T14:52:05;55.93;39.50;76.10;;
64036;Laerm;50280;49.864;8.638;2023-02-28T14:54:44;56.80;40.80;64.34;;
64036;Laerm;50280;49.864;8.638;2023-02-28T14:57:24;54.46;39.26;65.59;;
64036;Laerm;50280;49.864;8.638;2023-02-28T15:00:04;55.60;40.85;68.77;;
64036;Laerm;50280;49.864;8.638;2023-02-28T15:02:43;55.77;38.74;64.89;;
64036;Laerm;50280;49.864;8.638;2023-02-28T15:05:26;52.15;36.89;62.61;;
64036;Laerm;50280;49.864;8.638;2023-02-28T15:08:04;54.51;36.24;63.89;;